Time;durP1;ratioP1;P1;durP2;ratioP2;P2;SDS_P1;SDS_P2;PMS_P1;PMS_P2;Temp;Humidity;BMP_temperature;BMP_pressure;BME280_temperature;BME280_humidity;BME280_pressure;Samples;Min_cycle;Max_cycle;Signal;HPM_P1;HPM_P2
2021/05/31 00:00:27;;;;;;;5.63;4.73;;;14.90;67.10;;;;;;5043726;28;20540;-47
2021/05/31 00:02:55;;;;;;;4.30;3.90;;;14.90;67.10;;;;;;5043868;28;20461;-47
2021/05/31 00:05:24;;;;;;;5.23;4.60;;;14.80;67.00;;;;;;5045303;28;20518;-47
2021/05/31 00:07:54;;;;;;;6.20;5.57;;;14.70;67.10;;;;;;5039783;28;20467;-47
2021/05/31 00:10:25;;;;;;;5.87;5.30;;;14.70;67.10;;;;;;5043807;28;20467;-47
2021/05/31 00:12:54;;;;;;;5.60;4.50;;;14.60;67.10;;;;;;5045841;28;21004;-47
2021/05/31 00:15:22;;;;;;;4.83;4.40;;;14.60;67.30;;;;;;5040161;28;20483;-47
2021/05/31 00:17:50;;;;;;;6.77;4.83;;;14.50;67.50;;;;;;5042757;28;20509;-47
2021/05/31 00:20:19;;;;;;;8.80;5.17;;;14.50;67.60;;;;;;5044283;28;20481;-47
2021/05/31 00:22:47;;;;;;;4.43;4.03;;;14.40;67.70;;;;;;5040511;28;20455;-47
2021/05/31 00:25:15;;;;;;;5.70;4.77;;;14.30;67.90;;;;;;5041161;28;20449;-47
2021/05/31 00:27:44;;;;;;;5.30;4.80;;;14.30;68.10;;;;;;5042692;28;20455;-47
2021/05/31 00:30:13;;;;;;;7.00;5.73;;;14.20;68.20;;;;;;5042716;28;20949;-47
2021/05/31 00:32:41;;;;;;;6.17;5.43;;;14.20;68.40;;;;;;5042307;28;20482;-47
2021/05/31 00:35:10;;;;;;;6.90;5.77;;;14.20;68.50;;;;;;5040992;28;20458;-47
2021/05/31 00:37:38;;;;;;;5.80;4.47;;;14.20;68.60;;;;;;5041200;28;20466;-47
2021/05/31 00:40:08;;;;;;;5.00;4.50;;;14.10;68.60;;;;;;5043447;28;20485;-47
2021/05/31 00:42:37;;;;;;;5.90;5.00;;;14.10;68.60;;;;;;5042108;28;20451;-46
2021/05/31 00:45:07;;;;;;;7.50;5.30;;;14.10;68.80;;;;;;5040853;28;20937;-47
2021/05/31 00:47:35;;;;;;;5.90;4.93;;;14.10;68.90;;;;;;5048823;28;20455;-47
2021/05/31 00:50:05;;;;;;;6.07;4.37;;;14.00;69.10;;;;;;5045002;28;20454;-47
2021/05/31 00:52:33;;;;;;;6.00;4.83;;;14.00;69.10;;;;;;5045973;28;20458;-47
2021/05/31 00:55:02;;;;;;;5.03;4.20;;;13.90;69.20;;;;;;5045391;28;20458;-47
2021/05/31 00:57:31;;;;;;;4.50;3.97;;;13.90;69.30;;;;;;5046393;28;20825;-47
2021/05/31 00:59:59;;;;;;;7.30;5.70;;;13.90;69.40;;;;;;5043767;28;20461;-47
2021/05/31 01:02:28;;;;;;;5.83;4.60;;;13.80;69.40;;;;;;5043696;28;20482;-47
2021/05/31 01:04:56;;;;;;;5.73;5.10;;;13.80;69.40;;;;;;5043897;28;20461;-47
2021/05/31 01:07:36;;;;;;;4.57;3.93;;;13.80;69.50;;;;;;5043883;28;20709;-47
2021/05/31 01:10:28;;;;;;;8.17;4.50;;;13.70;69.40;;;;;;5045171;28;20943;-47
2021/05/31 01:13:03;;;;;;;5.57;4.80;;;13.60;69.60;;;;;;5043784;28;20459;-47
2021/05/31 01:15:36;;;;;;;7.97;4.47;;;13.60;70.00;;;;;;5040081;28;21207;-47
2021/05/31 01:18:18;;;;;;;4.97;4.23;;;13.60;70.00;;;;;;5041599;28;20455;-47
2021/05/31 01:21:23;;;;;;;5.80;4.30;;;13.50;70.00;;;;;;5041172;28;20497;-47
2021/05/31 01:24:02;;;;;;;5.57;4.80;;;13.50;70.10;;;;;;5046532;28;20455;-47
2021/05/31 01:26:48;;;;;;;8.07;5.80;;;13.40;70.20;;;;;;5045686;28;20479;-47
2021/05/31 01:29:16;;;;;;;6.97;5.27;;;13.40;70.30;;;;;;5046171;28;20974;-47
2021/05/31 01:31:55;;;;;;;8.37;5.57;;;13.40;70.50;;;;;;5048127;28;22346;-47
2021/05/31 01:34:26;;;;;;;8.43;5.73;;;13.40;70.40;;;;;;5046292;28;20453;-46
2021/05/31 01:37:24;;;;;;;5.90;5.07;;;13.30;70.60;;;;;;5046527;28;20451;-47
2021/05/31 01:39:55;;;;;;;6.40;5.20;;;13.30;70.80;;;;;;5042251;28;20462;-47
2021/05/31 01:42:26;;;;;;;6.30;5.57;;;13.30;70.80;;;;;;5046017;28;20872;-47
2021/05/31 01:44:54;;;;;;;8.00;5.33;;;13.20;70.80;;;;;;5044000;28;20464;-47
2021/05/31 01:47:22;;;;;;;5.53;4.90;;;13.20;70.90;;;;;;5049981;28;20836;-46
2021/05/31 01:49:51;;;;;;;5.97;4.20;;;13.20;71.00;;;;;;5046529;28;20446;-46
2021/05/31 01:52:23;;;;;;;4.80;4.10;;;13.20;71.10;;;;;;5046489;28;21007;-46
2021/05/31 01:54:55;;;;;;;7.87;5.33;;;13.20;71.10;;;;;;5044908;28;20477;-46
2021/05/31 01:57:24;;;;;;;5.27;4.60;;;13.10;71.10;;;;;;5045733;28;20463;-48
2021/05/31 01:59:53;;;;;;;6.17;5.53;;;13.10;71.30;;;;;;5044927;28;20465;-47
2021/05/31 02:02:30;;;;;;;5.60;5.10;;;13.00;71.40;;;;;;5043716;28;20501;-47
2021/05/31 02:04:58;;;;;;;5.47;4.90;;;13.00;71.50;;;;;;5041451;28;20458;-46
2021/05/31 02:07:28;;;;;;;6.97;5.50;;;13.00;71.70;;;;;;5042605;28;20594;-46
2021/05/31 02:09:56;;;;;;;8.50;5.60;;;12.90;71.70;;;;;;5043485;28;21019;-46
2021/05/31 02:12:31;;;;;;;5.87;5.13;;;12.90;71.80;;;;;;5043221;28;20451;-46
2021/05/31 02:15:12;;;;;;;6.63;5.80;;;12.80;71.80;;;;;;5043770;28;20466;-46
2021/05/31 02:17:54;;;;;;;5.87;5.03;;;12.80;71.80;;;;;;5044310;28;20454;-46
2021/05/31 02:20:25;;;;;;;5.77;4.60;;;12.80;71.80;;;;;;5044162;28;20948;-46
2021/05/31 02:22:59;;;;;;;6.50;5.10;;;12.80;71.80;;;;;;5045188;28;20462;-47
2021/05/31 02:25:27;;;;;;;9.60;5.43;;;12.80;71.70;;;;;;5045220;28;20463;-48
2021/05/31 02:27:58;;;;;;;7.10;6.17;;;12.80;71.50;;;;;;5045605;28;20466;-48
2021/05/31 02:30:26;;;;;;;7.50;4.93;;;12.70;71.60;;;;;;5045448;28;20796;-48
2021/05/31 02:33:00;;;;;;;6.70;5.00;;;12.70;71.60;;;;;;5046138;28;20451;-48
2021/05/31 02:35:31;;;;;;;6.00;5.10;;;12.60;71.70;;;;;;5045215;28;20493;-48
2021/05/31 02:38:01;;;;;;;4.93;4.37;;;12.50;71.80;;;;;;5045396;28;20473;-48
2021/05/31 02:40:31;;;;;;;6.87;5.00;;;12.50;71.80;;;;;;5042235;28;20488;-48
2021/05/31 02:43:03;;;;;;;5.80;5.20;;;12.50;71.90;;;;;;5046689;28;20963;-47
2021/05/31 02:45:31;;;;;;;6.60;4.90;;;12.50;71.80;;;;;;5047505;28;20482;-47
2021/05/31 02:47:59;;;;;;;5.93;5.30;;;12.50;71.80;;;;;;5045372;28;20458;-47
2021/05/31 02:50:29;;;;;;;6.27;5.27;;;12.40;72.00;;;;;;5042728;28;20469;-48
2021/05/31 02:52:58;;;;;;;8.00;5.40;;;12.40;72.10;;;;;;5043891;28;20436;-47
2021/05/31 02:55:28;;;;;;;7.47;5.50;;;12.40;72.40;;;;;;5048649;28;20450;-48
2021/05/31 02:57:57;;;;;;;5.60;4.70;;;12.30;72.40;;;;;;5045585;28;20845;-48
2021/05/31 03:00:27;;;;;;;5.90;5.30;;;12.30;72.50;;;;;;5044098;28;20455;-48
2021/05/31 03:02:55;;;;;;;6.70;5.23;;;12.30;72.80;;;;;;5042326;28;20955;-48
2021/05/31 03:05:28;;;;;;;6.23;5.20;;;12.30;72.70;;;;;;5042845;28;20454;-48
2021/05/31 03:07:59;;;;;;;6.50;5.83;;;12.20;72.70;;;;;;5044042;28;20470;-47
2021/05/31 03:10:28;;;;;;;6.40;5.00;;;12.20;72.90;;;;;;5041914;28;20462;-48
2021/05/31 03:12:59;;;;;;;5.77;5.23;;;12.10;72.80;;;;;;5046336;28;20952;-48
2021/05/31 03:15:28;;;;;;;5.10;4.57;;;12.10;72.90;;;;;;5039823;28;20457;-47
2021/05/31 03:17:56;;;;;;;7.63;4.97;;;12.10;72.90;;;;;;5046107;28;20459;-48
2021/05/31 03:20:29;;;;;;;6.20;5.60;;;12.10;73.00;;;;;;5044658;28;20467;-48
2021/05/31 03:22:57;;;;;;;7.20;5.60;;;12.10;73.10;;;;;;5043903;28;20451;-47
2021/05/31 03:25:26;;;;;;;4.70;4.23;;;12.00;73.30;;;;;;5047710;28;20455;-48
2021/05/31 03:27:58;;;;;;;6.27;5.50;;;12.00;73.30;;;;;;5040080;28;20456;-47
2021/05/31 03:30:26;;;;;;;6.60;5.03;;;12.00;73.20;;;;;;5042065;28;20454;-48
2021/05/31 03:32:56;;;;;;;7.97;5.20;;;12.00;73.20;;;;;;5041044;28;20997;-48
2021/05/31 03:35:25;;;;;;;10.30;6.13;;;12.00;73.30;;;;;;5044107;28;20490;-48
2021/05/31 03:37:53;;;;;;;6.60;5.17;;;11.90;73.30;;;;;;5044436;28;20818;-47
2021/05/31 03:40:22;;;;;;;7.40;5.43;;;11.90;73.50;;;;;;5044589;28;20471;-47
2021/05/31 03:42:54;;;;;;;6.00;4.87;;;11.90;73.60;;;;;;5045743;28;20490;-48
2021/05/31 03:45:23;;;;;;;9.03;5.07;;;11.90;73.50;;;;;;5040065;28;20489;-48
2021/05/31 03:47:51;;;;;;;6.00;5.40;;;11.80;73.70;;;;;;5042219;28;20462;-48
2021/05/31 03:50:19;;;;;;;8.13;5.63;;;11.80;73.80;;;;;;5043311;28;20459;-48
2021/05/31 03:52:49;;;;;;;6.30;5.60;;;11.80;74.10;;;;;;5043251;28;21017;-49
2021/05/31 03:55:20;;;;;;;5.27;4.77;;;11.80;74.30;;;;;;5041633;28;20523;-48
2021/05/31 03:57:47;;;;;;;6.23;5.20;;;11.80;74.30;;;;;;5039628;28;20850;-48
2021/05/31 04:00:17;;;;;;;6.37;5.40;;;11.80;74.30;;;;;;5047734;28;21100;-48
2021/05/31 04:02:45;;;;;;;8.60;5.50;;;11.80;74.40;;;;;;5042257;28;20993;-48
2021/05/31 04:05:15;;;;;;;6.90;5.20;;;11.80;74.40;;;;;;5042683;28;20450;-48
2021/05/31 04:13:20;;;;;;;5.63;5.13;;;11.90;74.50;;;;;;5045222;28;20443;-48
2021/05/31 04:15:47;;;;;;;5.73;4.73;;;11.90;74.40;;;;;;5041775;28;20462;-48
2021/05/31 04:18:16;;;;;;;8.20;5.80;;;11.90;74.40;;;;;;5043169;28;20469;-48
2021/05/31 04:20:44;;;;;;;6.50;5.20;;;11.90;74.40;;;;;;5042160;28;20470;-48
2021/05/31 04:23:12;;;;;;;7.70;6.33;;;12.00;74.30;;;;;;5043895;28;20939;-48
2021/05/31 04:25:40;;;;;;;6.67;5.57;;;12.00;74.30;;;;;;5044962;28;20463;-48
2021/05/31 04:28:10;;;;;;;9.97;5.77;;;12.00;74.30;;;;;;5042383;28;20450;-48
2021/05/31 04:30:38;;;;;;;6.53;5.77;;;12.00;74.40;;;;;;5045909;28;20451;-48
2021/05/31 04:33:06;;;;;;;8.03;5.60;;;12.00;74.50;;;;;;5041907;28;20962;-48
2021/05/31 04:35:34;;;;;;;11.07;5.40;;;12.00;74.60;;;;;;5042266;28;20462;-48
2021/05/31 04:38:02;;;;;;;6.60;6.00;;;12.10;74.60;;;;;;5042413;28;20454;-48
2021/05/31 04:40:30;;;;;;;7.50;5.50;;;12.10;74.70;;;;;;5041479;28;20463;-48
2021/05/31 04:42:58;;;;;;;7.77;5.63;;;12.20;74.70;;;;;;5040089;28;20509;-48
2021/05/31 04:45:27;;;;;;;8.90;5.70;;;12.20;74.70;;;;;;5041356;28;20458;-48
2021/05/31 04:47:55;;;;;;;13.70;6.03;;;12.20;74.60;;;;;;5042563;28;20471;-48
2021/05/31 04:50:24;;;;;;;6.77;4.80;;;12.30;74.70;;;;;;5045816;28;20449;-48
2021/05/31 04:52:52;;;;;;;10.10;5.20;;;12.40;74.50;;;;;;5040355;28;20948;-48
2021/05/31 04:55:20;;;;;;;8.40;5.17;;;12.40;74.30;;;;;;5041805;28;20469;-48
2021/05/31 04:57:48;;;;;;;6.40;5.90;;;12.50;74.00;;;;;;5045117;28;20828;-48
2021/05/31 05:00:18;;;;;;;7.57;5.13;;;12.60;73.90;;;;;;5045908;28;20494;-48
2021/05/31 05:02:46;;;;;;;8.27;5.93;;;12.60;74.00;;;;;;5045027;28;20496;-48
2021/05/31 05:05:15;;;;;;;11.10;5.90;;;12.70;74.20;;;;;;5038136;28;20447;-48
2021/05/31 05:07:46;;;;;;;6.07;4.80;;;12.70;74.20;;;;;;5044749;28;20466;-49
2021/05/31 05:10:17;;;;;;;9.23;5.63;;;12.70;74.40;;;;;;5042342;28;20463;-48
2021/05/31 05:12:47;;;;;;;8.03;6.30;;;12.80;74.30;;;;;;5044440;28;20454;-48
2021/05/31 05:15:17;;;;;;;6.70;5.90;;;12.90;74.30;;;;;;5042517;28;20463;-49
2021/05/31 05:17:48;;;;;;;7.33;5.93;;;13.00;73.90;;;;;;5042460;28;20931;-48
2021/05/31 05:20:19;;;;;;;12.47;8.60;;;13.00;73.80;;;;;;5041977;28;20459;-48
2021/05/31 05:22:48;;;;;;;25.03;17.30;;;13.10;73.70;;;;;;5044812;28;20845;-48
2021/05/31 05:25:16;;;;;;;15.40;11.90;;;13.10;73.60;;;;;;5041373;28;20457;-48
2021/05/31 05:27:45;;;;;;;9.00;6.80;;;13.20;73.10;;;;;;5042337;28;20489;-48
2021/05/31 05:30:17;;;;;;;7.03;5.50;;;13.30;72.80;;;;;;5040722;28;21024;-48
2021/05/31 05:32:49;;;;;;;5.83;4.90;;;13.30;72.60;;;;;;5046245;28;20462;-48
2021/05/31 05:35:25;;;;;;;6.77;6.00;;;13.40;71.80;;;;;;5048767;28;20932;-48
2021/05/31 05:48:30;;;;;;;6.70;5.80;;;13.80;71.90;;;;;;5049833;28;20441;-48
2021/05/31 05:51:07;;;;;;;7.40;5.33;;;14.00;71.10;;;;;;5047254;28;20447;-49
2021/05/31 05:53:43;;;;;;;7.87;3.80;;;14.00;70.70;;;;;;5047012;28;20450;-48
2021/05/31 05:56:13;;;;;;;4.90;4.40;;;14.20;70.30;;;;;;5051809;28;20490;-48
2021/05/31 05:58:42;;;;;;;4.93;3.70;;;14.30;68.20;;;;;;5044629;28;20478;-49
2021/05/31 06:01:11;;;;;;;4.90;4.40;;;14.40;64.70;;;;;;5049757;28;20794;-48
2021/05/31 06:03:39;;;;;;;5.53;3.30;;;14.60;63.50;;;;;;5045402;28;20451;-48
2021/05/31 06:06:07;;;;;;;3.77;3.43;;;14.80;62.70;;;;;;5051380;28;20439;-49
2021/05/31 06:08:36;;;;;;;4.07;3.20;;;14.90;61.60;;;;;;5048650;28;20483;-49
2021/05/31 06:11:05;;;;;;;8.20;4.20;;;15.00;61.50;;;;;;5044287;28;20985;-49
2021/05/31 06:13:33;;;;;;;4.80;3.23;;;15.10;60.00;;;;;;5046903;28;20903;-49
2021/05/31 06:16:02;;;;;;;3.60;3.10;;;15.30;59.10;;;;;;5045291;28;20990;-48
2021/05/31 06:18:30;;;;;;;4.83;3.73;;;15.30;59.60;;;;;;5044287;28;20463;-49
2021/05/31 06:20:58;;;;;;;4.20;3.27;;;15.50;59.80;;;;;;5045754;28;20462;-49
2021/05/31 06:23:26;;;;;;;4.40;3.30;;;15.60;59.10;;;;;;5047894;28;20483;-48
2021/05/31 06:25:55;;;;;;;4.70;3.07;;;15.70;58.20;;;;;;5045747;28;20463;-48
2021/05/31 06:28:23;;;;;;;4.80;3.90;;;15.80;56.90;;;;;;5047654;28;20450;-49
2021/05/31 06:30:50;;;;;;;4.80;3.13;;;16.00;56.70;;;;;;5049205;28;20458;-49
2021/05/31 06:33:20;;;;;;;4.20;3.03;;;16.10;56.60;;;;;;5049840;28;20490;-48
2021/05/31 06:35:50;;;;;;;4.50;2.93;;;16.20;56.20;;;;;;5047249;28;20483;-49
2021/05/31 06:38:18;;;;;;;6.00;3.77;;;16.40;56.50;;;;;;5045667;28;20469;-49
2021/05/31 06:40:49;;;;;;;4.27;3.10;;;16.40;56.10;;;;;;5049526;28;20458;-49
2021/05/31 06:43:18;;;;;;;3.27;2.90;;;16.50;55.80;;;;;;5044035;28;20495;-49
2021/05/31 06:45:45;;;;;;;5.37;3.23;;;16.60;55.80;;;;;;5045971;28;20453;-48
2021/05/31 06:48:14;;;;;;;5.87;3.23;;;16.80;55.20;;;;;;5047123;28;20455;-49
2021/05/31 06:50:44;;;;;;;3.80;3.50;;;17.00;54.60;;;;;;5043465;28;20447;-49
2021/05/31 06:53:16;;;;;;;6.20;3.60;;;17.10;54.30;;;;;;5042045;28;20461;-48
2021/05/31 06:55:46;;;;;;;3.80;3.13;;;17.20;53.20;;;;;;5045561;28;20526;-48
2021/05/31 06:58:15;;;;;;;6.47;3.67;;;17.40;51.60;;;;;;5042578;28;20774;-49
2021/05/31 07:00:46;;;;;;;6.23;2.90;;;17.50;51.00;;;;;;5044184;28;20470;-49
2021/05/31 07:03:14;;;;;;;2.90;2.60;;;17.60;50.70;;;;;;5046718;28;20538;-49
2021/05/31 07:05:42;;;;;;;4.77;2.93;;;17.70;49.90;;;;;;5042843;28;20467;-49
2021/05/31 07:08:11;;;;;;;4.93;2.77;;;17.80;49.30;;;;;;5046763;28;21025;-47
2021/05/31 07:10:39;;;;;;;4.23;3.50;;;18.00;48.30;;;;;;5044932;28;20458;-49
2021/05/31 07:13:07;;;;;;;3.53;2.87;;;18.10;48.80;;;;;;5041568;28;20462;-49
2021/05/31 07:15:36;;;;;;;4.47;3.20;;;18.20;48.30;;;;;;5044223;28;20455;-49
2021/05/31 07:18:05;;;;;;;3.30;2.80;;;18.40;48.30;;;;;;5043485;28;20465;-49
2021/05/31 07:20:33;;;;;;;4.67;3.20;;;18.60;48.00;;;;;;5041792;28;20485;-48
2021/05/31 07:23:01;;;;;;;5.83;3.03;;;18.70;48.70;;;;;;5044952;28;20493;-49
2021/05/31 07:25:29;;;;;;;4.00;3.13;;;18.80;49.50;;;;;;5045337;28;20458;-47
2021/05/31 07:27:58;;;;;;;4.50;3.20;;;19.00;49.30;;;;;;5043304;28;20458;-48
2021/05/31 07:30:26;;;;;;;5.83;3.40;;;19.20;49.50;;;;;;5043848;28;20454;-49
2021/05/31 07:32:54;;;;;;;2.90;2.63;;;19.30;48.90;;;;;;5041303;28;20485;-49
2021/05/31 07:35:22;;;;;;;4.27;3.30;;;19.50;48.30;;;;;;5044646;28;21019;-48
2021/05/31 07:37:51;;;;;;;3.83;2.53;;;19.70;47.10;;;;;;5044858;28;20505;-49
2021/05/31 07:40:20;;;;;;;5.67;2.97;;;19.80;46.60;;;;;;5042487;28;20466;-48
2021/05/31 07:42:49;;;;;;;3.60;2.60;;;20.00;47.40;;;;;;5041726;28;20507;-48
2021/05/31 07:45:18;;;;;;;5.23;3.20;;;20.10;47.20;;;;;;5041342;28;20463;-48
2021/05/31 07:47:47;;;;;;;3.20;2.90;;;20.30;46.70;;;;;;5042802;28;20478;-49
2021/05/31 07:50:18;;;;;;;3.33;2.90;;;20.50;46.40;;;;;;5046617;28;20497;-48
2021/05/31 07:52:48;;;;;;;3.93;3.10;;;20.60;46.60;;;;;;5043274;28;20518;-49
2021/05/31 07:55:18;;;;;;;3.23;2.77;;;20.80;46.20;;;;;;5043768;28;20451;-49
2021/05/31 07:57:47;;;;;;;3.27;2.70;;;21.00;45.30;;;;;;5042723;28;20554;-49
2021/05/31 08:00:19;;;;;;;3.70;2.97;;;21.20;44.30;;;;;;5040444;28;20461;-49
2021/05/31 08:02:51;;;;;;;2.80;2.03;;;21.30;44.20;;;;;;5042858;28;20516;-49
2021/05/31 08:05:23;;;;;;;3.53;3.23;;;21.40;43.30;;;;;;5045046;28;20450;-48
2021/05/31 08:07:52;;;;;;;3.93;2.77;;;21.60;43.40;;;;;;5043265;28;20458;-48
2021/05/31 08:10:22;;;;;;;3.43;2.37;;;21.70;42.80;;;;;;5046070;28;20450;-48
2021/05/31 08:12:51;;;;;;;3.40;3.10;;;21.80;42.20;;;;;;5041690;28;20451;-48
2021/05/31 08:15:20;;;;;;;3.97;2.57;;;21.90;42.60;;;;;;5041300;28;20463;-48
2021/05/31 08:17:51;;;;;;;4.80;2.90;;;22.00;42.90;;;;;;5042398;28;20459;-48
2021/05/31 08:20:21;;;;;;;3.67;2.57;;;22.20;42.70;;;;;;5043147;28;20458;-48
2021/05/31 08:22:49;;;;;;;4.27;2.70;;;22.30;41.70;;;;;;5041432;28;20478;-48
2021/05/31 08:25:18;;;;;;;3.83;2.73;;;22.30;41.50;;;;;;5044279;28;20523;-48
2021/05/31 08:27:46;;;;;;;2.77;2.57;;;22.50;41.40;;;;;;5042089;28;21006;-48
2021/05/31 08:30:15;;;;;;;2.77;2.57;;;22.50;42.20;;;;;;5043081;28;20457;-48
2021/05/31 08:32:43;;;;;;;4.40;2.73;;;22.60;41.20;;;;;;5040302;28;20486;-48
2021/05/31 08:35:11;;;;;;;4.33;2.73;;;22.70;40.70;;;;;;5042209;28;20794;-48
2021/05/31 08:37:41;;;;;;;2.90;2.70;;;22.70;39.80;;;;;;5044778;28;20465;-48
2021/05/31 08:40:11;;;;;;;3.00;2.70;;;22.80;40.20;;;;;;5042906;28;20497;-48
2021/05/31 08:42:41;;;;;;;4.73;3.00;;;22.90;40.50;;;;;;5041381;28;20524;-48
2021/05/31 08:45:12;;;;;;;3.20;2.53;;;23.00;40.60;;;;;;5043582;28;20446;-48
2021/05/31 08:47:52;;;;;;;2.93;2.63;;;23.10;39.20;;;;;;5042994;28;20453;-48
2021/05/31 08:50:23;;;;;;;2.83;2.20;;;23.30;39.60;;;;;;5043044;28;20457;-48
2021/05/31 08:52:52;;;;;;;4.07;3.17;;;23.30;38.40;;;;;;5042318;28;20491;-48
2021/05/31 08:55:24;;;;;;;4.57;2.50;;;23.40;38.90;;;;;;5044833;28;20509;-48
2021/05/31 08:57:53;;;;;;;4.77;4.33;;;23.50;38.70;;;;;;5041199;28;20470;-48
2021/05/31 09:00:27;;;;;;;11.10;2.73;;;23.70;38.70;;;;;;5041920;28;20474;-48
2021/05/31 09:02:59;;;;;;;3.13;2.83;;;23.80;39.20;;;;;;5043308;28;20481;-48
2021/05/31 09:05:42;;;;;;;7.30;6.50;;;23.90;38.00;;;;;;5042382;28;20446;-48
2021/05/31 09:08:12;;;;;;;34.73;31.17;;;24.00;38.10;;;;;;5044720;28;20489;-48
2021/05/31 09:10:46;;;;;;;11.83;10.57;;;24.20;38.00;;;;;;5045283;28;20832;-48
2021/05/31 09:13:37;;;;;;;24.07;14.53;;;24.50;37.80;;;;;;5048402;28;20454;-48
2021/05/31 09:16:09;;;;;;;7.50;6.47;;;24.80;37.00;;;;;;5043687;28;20469;-48
2021/05/31 09:18:39;;;;;;;4.60;2.77;;;25.00;36.50;;;;;;5045859;28;20501;-48
2021/05/31 09:21:12;;;;;;;3.03;2.57;;;25.30;36.10;;;;;;5046810;28;20454;-48
2021/05/31 09:23:41;;;;;;;5.30;2.97;;;25.50;35.30;;;;;;5045687;28;20539;-48
2021/05/31 09:26:09;;;;;;;3.00;2.80;;;25.80;35.00;;;;;;5046582;28;20453;-50
2021/05/31 09:28:38;;;;;;;3.63;3.30;;;26.10;34.50;;;;;;5044808;28;20452;-48
2021/05/31 09:31:16;;;;;;;3.87;3.20;;;26.40;34.30;;;;;;5045280;28;20528;-48
2021/05/31 09:33:54;;;;;;;3.87;2.90;;;26.60;33.60;;;;;;5046249;28;20462;-48
2021/05/31 09:36:23;;;;;;;3.73;2.80;;;26.90;33.70;;;;;;5046430;28;20466;-48
2021/05/31 09:38:51;;;;;;;3.30;2.93;;;27.20;33.30;;;;;;5049420;28;20453;-49
2021/05/31 09:41:34;;;;;;;6.63;2.93;;;27.70;33.30;;;;;;5045122;28;20208;-49
2021/05/31 09:44:05;;;;;;;4.10;3.23;;;28.10;32.20;;;;;;5049122;28;20285;-49
2021/05/31 09:46:41;;;;;;;3.27;2.70;;;28.50;31.30;;;;;;5044552;28;20208;-49
2021/05/31 09:49:17;;;;;;;5.30;2.80;;;28.80;31.50;;;;;;5043521;28;20204;-49
2021/05/31 09:52:05;;;;;;;3.83;2.80;;;29.10;31.60;;;;;;5048055;28;20211;-48
2021/05/31 09:54:53;;;;;;;3.73;3.33;;;29.30;30.90;;;;;;5047020;28;20203;-48
2021/05/31 09:57:31;;;;;;;3.50;2.63;;;29.40;30.50;;;;;;5045943;28;20307;-49
2021/05/31 10:00:05;;;;;;;4.23;2.83;;;29.40;30.70;;;;;;5046015;28;20230;-48
2021/05/31 10:03:09;;;;;;;4.87;2.17;;;29.10;30.00;;;;;;5040879;28;20226;-48
2021/05/31 10:05:49;;;;;;;;;;;;;;;;;;;;;
2021/05/31 10:10:45;;;;;;;3.73;2.87;;;27.80;31.10;;;;;;5048093;28;20214;-48
2021/05/31 10:13:18;;;;;;;3.77;2.87;;;27.40;31.90;;;;;;5042793;28;20533;-48
2021/05/31 10:15:46;;;;;;;3.80;3.40;;;27.00;33.10;;;;;;5044176;28;20578;-48
2021/05/31 10:18:15;;;;;;;3.60;3.27;;;26.60;33.60;;;;;;5039564;28;20583;-48
2021/05/31 10:20:44;;;;;;;4.63;3.10;;;26.20;33.80;;;;;;5045971;28;20468;-48
2021/05/31 10:23:14;;;;;;;3.33;2.90;;;25.80;34.50;;;;;;5044966;28;20502;-48
2021/05/31 10:25:49;;;;;;;4.07;2.67;;;25.50;34.70;;;;;;5045722;28;20468;-48
2021/05/31 10:28:23;;;;;;;4.20;2.83;;;25.30;35.20;;;;;;5048796;28;20574;-48
2021/05/31 10:31:11;;;;;;;4.10;2.60;;;25.10;35.00;;;;;;5041637;28;22595;-48
2021/05/31 10:33:42;;;;;;;9.53;4.13;;;24.90;35.40;;;;;;5049698;28;20517;-48
2021/05/31 10:36:18;;;;;;;4.40;2.93;;;24.70;36.20;;;;;;5042730;28;20955;-48
2021/05/31 10:38:50;;;;;;;4.00;2.80;;;24.50;35.10;;;;;;5049202;28;20818;-48
2021/05/31 10:41:23;;;;;;;4.70;2.97;;;24.20;34.50;;;;;;5046758;28;20475;-48
2021/05/31 10:43:56;;;;;;;4.93;3.27;;;24.00;35.70;;;;;;5045604;28;20500;-48
2021/05/31 10:46:33;;;;;;;4.90;3.50;;;23.80;36.10;;;;;;5044552;28;20459;-48
2021/05/31 10:49:04;;;;;;;5.33;3.43;;;23.60;36.30;;;;;;5044218;28;20485;-48
2021/05/31 10:51:38;;;;;;;6.60;2.93;;;23.40;37.30;;;;;;5046346;28;20467;-48
2021/05/31 10:54:15;;;;;;;4.20;3.50;;;23.30;37.70;;;;;;5047762;28;20462;-48
2021/05/31 10:56:45;;;;;;;3.90;2.87;;;23.10;37.80;;;;;;5044074;28;20859;-48
2021/05/31 10:59:19;;;;;;;4.77;2.90;;;22.90;38.00;;;;;;5045448;28;20458;-47
2021/05/31 11:01:48;;;;;;;6.83;3.03;;;22.80;38.20;;;;;;5042677;28;20520;-48
2021/05/31 11:04:19;;;;;;;4.83;3.93;;;22.80;38.60;;;;;;5046050;28;20488;-48
2021/05/31 11:06:49;;;;;;;2.93;2.60;;;22.80;38.40;;;;;;5045511;28;20454;-48
2021/05/31 11:09:24;;;;;;;2.77;2.57;;;22.70;39.40;;;;;;5043127;28;20479;-48
2021/05/31 11:11:55;;;;;;;3.10;2.80;;;22.60;39.30;;;;;;5046832;28;20458;-48
2021/05/31 11:14:46;;;;;;;2.83;2.63;;;22.50;39.30;;;;;;5043407;28;20477;-48
2021/05/31 11:17:18;;;;;;;2.60;2.40;;;22.50;39.60;;;;;;5039416;28;20466;-47
2021/05/31 11:19:49;;;;;;;4.83;3.30;;;22.50;40.80;;;;;;5043092;28;20970;-48
2021/05/31 11:22:29;;;;;;;3.20;2.87;;;22.40;39.60;;;;;;5047757;28;20457;-48
2021/05/31 11:25:05;;;;;;;3.37;3.07;;;22.40;40.00;;;;;;5044537;28;20489;-48
2021/05/31 11:27:37;;;;;;;3.20;2.47;;;22.50;40.20;;;;;;5046663;28;20508;-48
2021/05/31 11:30:31;;;;;;;4.10;2.67;;;22.50;39.60;;;;;;5047876;28;20591;-48
2021/05/31 11:33:06;;;;;;;5.43;3.53;;;22.50;38.50;;;;;;5040831;28;20537;-48
2021/05/31 11:35:35;;;;;;;3.90;2.70;;;22.50;38.30;;;;;;5045426;28;20507;-48
2021/05/31 11:38:06;;;;;;;5.23;2.87;;;22.50;38.60;;;;;;5043880;28;20446;-48
2021/05/31 11:40:42;;;;;;;3.30;3.00;;;22.50;38.60;;;;;;5043265;28;20455;-48
2021/05/31 11:43:15;;;;;;;3.50;2.73;;;22.60;38.30;;;;;;5041394;28;20474;-47
2021/05/31 11:45:46;;;;;;;3.23;2.93;;;22.70;38.90;;;;;;5044487;28;20507;-48
2021/05/31 11:48:18;;;;;;;3.67;3.23;;;22.70;38.80;;;;;;5045576;28;21014;-48
2021/05/31 11:50:48;;;;;;;4.70;2.80;;;22.70;39.30;;;;;;5043625;28;20462;-48
2021/05/31 11:53:17;;;;;;;4.50;2.80;;;22.70;39.80;;;;;;5041682;28;20446;-48
2021/05/31 11:55:46;;;;;;;4.10;2.57;;;22.60;39.10;;;;;;5041203;28;20453;-48
2021/05/31 11:58:17;;;;;;;4.47;3.37;;;22.60;38.60;;;;;;5045489;28;20457;-48
2021/05/31 12:00:46;;;;;;;4.50;3.00;;;22.60;39.30;;;;;;5045248;28;20477;-48
2021/05/31 12:03:19;;;;;;;3.43;3.07;;;22.60;39.30;;;;;;5044139;28;20858;-48
2021/05/31 12:05:52;;;;;;;5.97;3.03;;;22.60;38.80;;;;;;5043546;28;20462;-48
2021/05/31 12:08:22;;;;;;;4.93;2.90;;;22.50;39.30;;;;;;5044629;28;20574;-48
2021/05/31 12:10:51;;;;;;;3.70;3.00;;;22.50;40.20;;;;;;5043750;28;20442;-48
2021/05/31 12:13:32;;;;;;;4.27;3.07;;;22.50;40.40;;;;;;5045411;28;20458;-48
2021/05/31 12:16:20;;;;;;;3.13;2.83;;;22.50;40.50;;;;;;5045174;28;20442;-48
2021/05/31 12:18:48;;;;;;;3.60;3.20;;;22.60;41.10;;;;;;5045214;28;20473;-48
2021/05/31 12:21:16;;;;;;;3.73;2.80;;;22.50;40.10;;;;;;5046876;28;20454;-47
2021/05/31 12:23:52;;;;;;;7.53;3.20;;;22.50;39.90;;;;;;5040398;28;20489;-48
2021/05/31 12:26:23;;;;;;;4.90;3.70;;;22.50;41.40;;;;;;5039496;28;20457;-48
2021/05/31 12:28:52;;;;;;;3.83;3.10;;;22.50;40.90;;;;;;5041838;28;20455;-48
2021/05/31 12:31:20;;;;;;;5.83;3.20;;;22.60;40.60;;;;;;5041384;28;20454;-47
2021/05/31 12:33:59;;;;;;;4.77;3.10;;;22.60;40.20;;;;;;5040122;28;20464;-48
2021/05/31 12:36:32;;;;;;;4.80;2.60;;;22.60;40.00;;;;;;5040442;28;20466;-48
2021/05/31 12:39:02;;;;;;;3.20;2.90;;;22.60;41.20;;;;;;5041360;28;20473;-48
2021/05/31 12:41:30;;;;;;;3.80;3.10;;;22.60;41.90;;;;;;5041765;28;20823;-48
2021/05/31 12:44:06;;;;;;;3.07;2.87;;;22.60;41.60;;;;;;5042665;28;20562;-48
2021/05/31 12:46:42;;;;;;;3.57;3.03;;;22.60;42.00;;;;;;5046992;28;20462;-47
2021/05/31 12:49:15;;;;;;;7.77;3.60;;;22.60;42.80;;;;;;5025677;28;20525;-48
2021/05/31 12:51:53;;;;;;;2.97;2.77;;;22.60;42.10;;;;;;5043200;28;20454;-48
2021/05/31 12:54:21;;;;;;;4.30;3.70;;;22.70;42.40;;;;;;5046660;28;20954;-48
2021/05/31 12:56:51;;;;;;;3.80;3.50;;;22.70;42.00;;;;;;5041946;28;20956;-48
2021/05/31 12:59:25;;;;;;;4.27;3.30;;;22.80;41.20;;;;;;5042229;28;20465;-47
2021/05/31 13:01:53;;;;;;;5.60;2.80;;;22.80;40.70;;;;;;5042361;28;21361;-48
2021/05/31 13:04:28;;;;;;;3.07;2.77;;;22.80;40.40;;;;;;5040266;28;20490;-48
2021/05/31 13:07:01;;;;;;;3.00;2.80;;;22.80;40.90;;;;;;5043373;28;20464;-48
2021/05/31 13:09:29;;;;;;;3.30;2.90;;;22.90;40.50;;;;;;5046811;28;21060;-47
2021/05/31 13:12:00;;;;;;;4.20;3.70;;;22.90;40.20;;;;;;5042060;28;20849;-48
2021/05/31 13:14:30;;;;;;;3.77;2.90;;;22.90;40.70;;;;;;5043476;28;20475;-47
2021/05/31 13:17:02;;;;;;;3.43;3.03;;;22.90;41.30;;;;;;5044062;28;20818;-48
2021/05/31 13:19:34;;;;;;;3.27;2.80;;;22.90;40.60;;;;;;5042098;28;20457;-48
2021/05/31 13:22:04;;;;;;;3.70;3.40;;;23.00;41.00;;;;;;5043593;28;20446;-48
2021/05/31 13:24:36;;;;;;;5.73;3.80;;;22.90;40.70;;;;;;5042012;28;20485;-48
2021/05/31 13:27:16;;;;;;;4.20;3.80;;;22.90;41.00;;;;;;5044399;28;20457;-48